sensor_id;sensor_type;location;lat;lon;timestamp;P1;durP1;ratioP1;P2;durP2;ratioP2
26484;SDS011;18083;50.560;7.262;2024-03-22T00:01:13;21.57;;;14.03;;
26484;SDS011;18083;50.560;7.262;2024-03-22T00:03:40;24.52;;;13.60;;
26484;SDS011;18083;50.560;7.262;2024-03-22T00:06:08;22.52;;;13.80;;
26484;SDS011;18083;50.560;7.262;2024-03-22T00:08:35;19.70;;;13.68;;
26484;SDS011;18083;50.560;7.262;2024-03-22T00:11:02;20.08;;;13.38;;
26484;SDS011;18083;50.560;7.262;2024-03-22T00:13:30;20.77;;;13.58;;
26484;SDS011;18083;50.560;7.262;2024-03-22T00:15:57;21.75;;;14.78;;
26484;SDS011;18083;50.560;7.262;2024-03-22T00:18:24;22.42;;;14.30;;
26484;SDS011;18083;50.560;7.262;2024-03-22T00:20:52;26.65;;;14.90;;
26484;SDS011;18083;50.560;7.262;2024-03-22T00:23:19;22.65;;;14.85;;
26484;SDS011;18083;50.560;7.262;2024-03-22T00:25:46;23.02;;;14.73;;
26484;SDS011;18083;50.560;7.262;2024-03-22T00:28:14;21.20;;;14.50;;
26484;SDS011;18083;50.560;7.262;2024-03-22T00:30:41;26.10;;;15.55;;
26484;SDS011;18083;50.560;7.262;2024-03-22T00:33:08;19.90;;;14.60;;
26484;SDS011;18083;50.560;7.262;2024-03-22T00:35:36;25.05;;;15.13;;
26484;SDS011;18083;50.560;7.262;2024-03-22T00:38:03;22.97;;;14.77;;
26484;SDS011;18083;50.560;7.262;2024-03-22T00:40:30;22.27;;;14.35;;
26484;SDS011;18083;50.560;7.262;2024-03-22T00:42:58;26.40;;;15.77;;
26484;SDS011;18083;50.560;7.262;2024-03-22T00:45:25;18.97;;;13.23;;
26484;SDS011;18083;50.560;7.262;2024-03-22T00:47:53;20.15;;;12.88;;
26484;SDS011;18083;50.560;7.262;2024-03-22T00:50:20;21.87;;;13.10;;
26484;SDS011;18083;50.560;7.262;2024-03-22T00:52:47;24.20;;;14.60;;
26484;SDS011;18083;50.560;7.262;2024-03-22T00:55:15;19.30;;;12.73;;
26484;SDS011;18083;50.560;7.262;2024-03-22T00:57:42;25.10;;;13.90;;
26484;SDS011;18083;50.560;7.262;2024-03-22T01:00:09;22.58;;;13.98;;
26484;SDS011;18083;50.560;7.262;2024-03-22T01:02:37;23.18;;;13.70;;
26484;SDS011;18083;50.560;7.262;2024-03-22T01:05:04;23.60;;;14.23;;
26484;SDS011;18083;50.560;7.262;2024-03-22T01:07:31;22.85;;;14.03;;
26484;SDS011;18083;50.560;7.262;2024-03-22T01:09:59;23.07;;;14.95;;
26484;SDS011;18083;50.560;7.262;2024-03-22T01:12:26;24.40;;;14.37;;
26484;SDS011;18083;50.560;7.262;2024-03-22T01:14:54;23.53;;;15.23;;
26484;SDS011;18083;50.560;7.262;2024-03-22T01:17:21;23.53;;;15.17;;
26484;SDS011;18083;50.560;7.262;2024-03-22T01:19:49;22.53;;;14.43;;
26484;SDS011;18083;50.560;7.262;2024-03-22T01:22:16;24.52;;;14.60;;
26484;SDS011;18083;50.560;7.262;2024-03-22T01:24:44;20.57;;;13.27;;
26484;SDS011;18083;50.560;7.262;2024-03-22T01:27:12;26.05;;;13.25;;
26484;SDS011;18083;50.560;7.262;2024-03-22T01:29:39;17.33;;;13.20;;
26484;SDS011;18083;50.560;7.262;2024-03-22T01:32:07;22.53;;;14.57;;
26484;SDS011;18083;50.560;7.262;2024-03-22T01:34:34;26.97;;;14.63;;
26484;SDS011;18083;50.560;7.262;2024-03-22T01:37:01;18.57;;;12.63;;
26484;SDS011;18083;50.560;7.262;2024-03-22T01:39:29;25.20;;;15.17;;
26484;SDS011;18083;50.560;7.262;2024-03-22T01:41:56;21.68;;;14.00;;
26484;SDS011;18083;50.560;7.262;2024-03-22T01:44:31;24.43;;;14.47;;
26484;SDS011;18083;50.560;7.262;2024-03-22T01:46:58;24.60;;;15.10;;
26484;SDS011;18083;50.560;7.262;2024-03-22T01:49:28;27.23;;;16.57;;
26484;SDS011;18083;50.560;7.262;2024-03-22T01:51:56;24.60;;;14.93;;
26484;SDS011;18083;50.560;7.262;2024-03-22T01:54:24;24.83;;;14.83;;
26484;SDS011;18083;50.560;7.262;2024-03-22T01:56:51;30.48;;;17.57;;
26484;SDS011;18083;50.560;7.262;2024-03-22T01:59:19;24.07;;;15.17;;
26484;SDS011;18083;50.560;7.262;2024-03-22T02:01:47;28.80;;;15.83;;
26484;SDS011;18083;50.560;7.262;2024-03-22T02:04:15;23.83;;;16.87;;
26484;SDS011;18083;50.560;7.262;2024-03-22T02:06:42;31.03;;;19.97;;
26484;SDS011;18083;50.560;7.262;2024-03-22T02:09:10;27.48;;;15.38;;
26484;SDS011;18083;50.560;7.262;2024-03-22T02:11:37;23.90;;;15.10;;
26484;SDS011;18083;50.560;7.262;2024-03-22T02:14:06;26.47;;;15.70;;
26484;SDS011;18083;50.560;7.262;2024-03-22T02:16:33;22.93;;;15.40;;
26484;SDS011;18083;50.560;7.262;2024-03-22T02:19:01;29.70;;;17.77;;
26484;SDS011;18083;50.560;7.262;2024-03-22T02:21:28;29.47;;;18.83;;
26484;SDS011;18083;50.560;7.262;2024-03-22T02:23:55;39.20;;;19.93;;
26484;SDS011;18083;50.560;7.262;2024-03-22T02:26:23;32.13;;;19.48;;
26484;SDS011;18083;50.560;7.262;2024-03-22T02:28:50;35.23;;;20.83;;
26484;SDS011;18083;50.560;7.262;2024-03-22T02:31:17;30.43;;;18.13;;
26484;SDS011;18083;50.560;7.262;2024-03-22T02:33:46;39.33;;;20.90;;
26484;SDS011;18083;50.560;7.262;2024-03-22T02:36:13;32.37;;;20.00;;
26484;SDS011;18083;50.560;7.262;2024-03-22T02:38:41;38.53;;;21.30;;
26484;SDS011;18083;50.560;7.262;2024-03-22T02:41:08;39.30;;;20.43;;
26484;SDS011;18083;50.560;7.262;2024-03-22T02:43:35;36.57;;;19.63;;
26484;SDS011;18083;50.560;7.262;2024-03-22T02:46:03;38.37;;;20.17;;
26484;SDS011;18083;50.560;7.262;2024-03-22T02:48:30;34.07;;;19.40;;
26484;SDS011;18083;50.560;7.262;2024-03-22T02:50:58;38.57;;;20.33;;
26484;SDS011;18083;50.560;7.262;2024-03-22T02:53:25;38.37;;;20.80;;
26484;SDS011;18083;50.560;7.262;2024-03-22T02:55:52;32.80;;;19.00;;
26484;SDS011;18083;50.560;7.262;2024-03-22T02:58:20;34.30;;;18.50;;
26484;SDS011;18083;50.560;7.262;2024-03-22T03:00:48;30.37;;;19.27;;
26484;SDS011;18083;50.560;7.262;2024-03-22T03:03:15;34.50;;;19.33;;
26484;SDS011;18083;50.560;7.262;2024-03-22T03:05:43;29.90;;;18.13;;
26484;SDS011;18083;50.560;7.262;2024-03-22T03:08:10;32.10;;;19.37;;
26484;SDS011;18083;50.560;7.262;2024-03-22T03:10:37;29.43;;;17.50;;
26484;SDS011;18083;50.560;7.262;2024-03-22T03:13:05;34.07;;;20.10;;
26484;SDS011;18083;50.560;7.262;2024-03-22T03:15:32;30.93;;;19.13;;
26484;SDS011;18083;50.560;7.262;2024-03-22T03:18:00;29.47;;;18.03;;
26484;SDS011;18083;50.560;7.262;2024-03-22T03:20:27;30.67;;;18.80;;
26484;SDS011;18083;50.560;7.262;2024-03-22T03:22:54;30.77;;;17.33;;
26484;SDS011;18083;50.560;7.262;2024-03-22T03:25:23;36.53;;;18.57;;
26484;SDS011;18083;50.560;7.262;2024-03-22T03:27:51;37.65;;;19.57;;
26484;SDS011;18083;50.560;7.262;2024-03-22T03:30:18;37.98;;;19.30;;
26484;SDS011;18083;50.560;7.262;2024-03-22T03:32:45;31.73;;;17.87;;
26484;SDS011;18083;50.560;7.262;2024-03-22T03:35:13;32.03;;;16.40;;
26484;SDS011;18083;50.560;7.262;2024-03-22T03:37:40;30.50;;;17.53;;
26484;SDS011;18083;50.560;7.262;2024-03-22T03:40:08;27.17;;;17.00;;
26484;SDS011;18083;50.560;7.262;2024-03-22T03:42:35;31.20;;;19.13;;
26484;SDS011;18083;50.560;7.262;2024-03-22T03:45:02;30.43;;;18.13;;
26484;SDS011;18083;50.560;7.262;2024-03-22T03:47:30;34.75;;;17.10;;
26484;SDS011;18083;50.560;7.262;2024-03-22T03:49:57;30.40;;;17.83;;
26484;SDS011;18083;50.560;7.262;2024-03-22T03:52:25;32.03;;;17.77;;
26484;SDS011;18083;50.560;7.262;2024-03-22T03:54:52;26.67;;;16.93;;
26484;SDS011;18083;50.560;7.262;2024-03-22T03:57:19;28.57;;;16.57;;
26484;SDS011;18083;50.560;7.262;2024-03-22T03:59:47;25.07;;;16.10;;
26484;SDS011;18083;50.560;7.262;2024-03-22T04:02:14;23.27;;;14.07;;
26484;SDS011;18083;50.560;7.262;2024-03-22T04:04:41;24.10;;;14.37;;
26484;SDS011;18083;50.560;7.262;2024-03-22T04:07:09;28.40;;;15.57;;
26484;SDS011;18083;50.560;7.262;2024-03-22T04:09:36;25.67;;;14.60;;
26484;SDS011;18083;50.560;7.262;2024-03-22T04:12:03;24.67;;;14.43;;
26484;SDS011;18083;50.560;7.262;2024-03-22T04:14:31;25.17;;;15.37;;
26484;SDS011;18083;50.560;7.262;2024-03-22T04:16:58;23.80;;;14.83;;
26484;SDS011;18083;50.560;7.262;2024-03-22T04:19:25;29.27;;;15.93;;
26484;SDS011;18083;50.560;7.262;2024-03-22T04:21:53;30.07;;;15.97;;
26484;SDS011;18083;50.560;7.262;2024-03-22T04:24:20;27.17;;;15.07;;
26484;SDS011;18083;50.560;7.262;2024-03-22T04:26:47;25.87;;;14.17;;
26484;SDS011;18083;50.560;7.262;2024-03-22T04:29:15;28.93;;;17.73;;
26484;SDS011;18083;50.560;7.262;2024-03-22T04:31:42;29.63;;;16.87;;
26484;SDS011;18083;50.560;7.262;2024-03-22T04:34:09;26.70;;;15.30;;
26484;SDS011;18083;50.560;7.262;2024-03-22T04:36:37;25.60;;;14.50;;
26484;SDS011;18083;50.560;7.262;2024-03-22T04:39:04;27.87;;;14.47;;
26484;SDS011;18083;50.560;7.262;2024-03-22T04:41:32;29.30;;;17.17;;
26484;SDS011;18083;50.560;7.262;2024-03-22T04:43:59;27.23;;;15.90;;
26484;SDS011;18083;50.560;7.262;2024-03-22T04:46:26;25.00;;;15.23;;
26484;SDS011;18083;50.560;7.262;2024-03-22T04:48:54;26.83;;;15.90;;
26484;SDS011;18083;50.560;7.262;2024-03-22T04:51:21;24.40;;;14.23;;
26484;SDS011;18083;50.560;7.262;2024-03-22T04:53:49;28.63;;;14.47;;
26484;SDS011;18083;50.560;7.262;2024-03-22T04:56:16;28.37;;;15.27;;
26484;SDS011;18083;50.560;7.262;2024-03-22T04:58:43;27.17;;;16.90;;
26484;SDS011;18083;50.560;7.262;2024-03-22T05:01:11;27.03;;;17.60;;
26484;SDS011;18083;50.560;7.262;2024-03-22T05:03:38;23.57;;;15.00;;
26484;SDS011;18083;50.560;7.262;2024-03-22T05:06:07;28.20;;;14.97;;
26484;SDS011;18083;50.560;7.262;2024-03-22T05:08:34;30.17;;;16.30;;
26484;SDS011;18083;50.560;7.262;2024-03-22T05:11:02;26.03;;;13.00;;
26484;SDS011;18083;50.560;7.262;2024-03-22T05:13:29;29.30;;;15.00;;
26484;SDS011;18083;50.560;7.262;2024-03-22T05:15:57;32.63;;;17.23;;
26484;SDS011;18083;50.560;7.262;2024-03-22T05:18:24;24.37;;;15.20;;
26484;SDS011;18083;50.560;7.262;2024-03-22T05:20:52;24.53;;;14.10;;
26484;SDS011;18083;50.560;7.262;2024-03-22T05:23:19;24.03;;;14.67;;
26484;SDS011;18083;50.560;7.262;2024-03-22T05:25:46;34.93;;;16.23;;
26484;SDS011;18083;50.560;7.262;2024-03-22T05:28:14;21.77;;;14.67;;
26484;SDS011;18083;50.560;7.262;2024-03-22T05:30:41;27.77;;;15.23;;
26484;SDS011;18083;50.560;7.262;2024-03-22T05:33:09;24.60;;;14.93;;
26484;SDS011;18083;50.560;7.262;2024-03-22T05:35:36;29.87;;;15.80;;
26484;SDS011;18083;50.560;7.262;2024-03-22T05:38:03;29.67;;;16.27;;
26484;SDS011;18083;50.560;7.262;2024-03-22T05:40:31;25.63;;;14.77;;
26484;SDS011;18083;50.560;7.262;2024-03-22T05:42:58;28.37;;;16.17;;
26484;SDS011;18083;50.560;7.262;2024-03-22T05:45:25;27.03;;;14.57;;
26484;SDS011;18083;50.560;7.262;2024-03-22T05:47:53;26.47;;;14.70;;
26484;SDS011;18083;50.560;7.262;2024-03-22T05:56:15;27.25;;;14.90;;
26484;SDS011;18083;50.560;7.262;2024-03-22T05:58:42;30.63;;;15.40;;
26484;SDS011;18083;50.560;7.262;2024-03-22T06:01:09;25.70;;;15.00;;
26484;SDS011;18083;50.560;7.262;2024-03-22T06:03:37;28.33;;;15.50;;
26484;SDS011;18083;50.560;7.262;2024-03-22T06:06:04;29.47;;;14.63;;
26484;SDS011;18083;50.560;7.262;2024-03-22T06:08:32;23.60;;;14.78;;
26484;SDS011;18083;50.560;7.262;2024-03-22T06:11:01;28.23;;;15.53;;
26484;SDS011;18083;50.560;7.262;2024-03-22T06:13:28;25.47;;;14.83;;
26484;SDS011;18083;50.560;7.262;2024-03-22T06:15:57;25.23;;;14.80;;
26484;SDS011;18083;50.560;7.262;2024-03-22T06:18:24;25.60;;;14.30;;
26484;SDS011;18083;50.560;7.262;2024-03-22T06:20:52;27.30;;;14.95;;
26484;SDS011;18083;50.560;7.262;2024-03-22T06:23:21;23.97;;;14.40;;
26484;SDS011;18083;50.560;7.262;2024-03-22T06:25:52;30.27;;;15.40;;
26484;SDS011;18083;50.560;7.262;2024-03-22T06:28:19;24.10;;;15.27;;
26484;SDS011;18083;50.560;7.262;2024-03-22T06:30:47;28.53;;;16.50;;
26484;SDS011;18083;50.560;7.262;2024-03-22T06:33:14;22.77;;;12.87;;
26484;SDS011;18083;50.560;7.262;2024-03-22T06:35:42;27.80;;;15.67;;
26484;SDS011;18083;50.560;7.262;2024-03-22T06:38:09;23.83;;;13.70;;
26484;SDS011;18083;50.560;7.262;2024-03-22T06:40:37;25.87;;;15.43;;
26484;SDS011;18083;50.560;7.262;2024-03-22T06:43:04;23.20;;;13.33;;
26484;SDS011;18083;50.560;7.262;2024-03-22T06:45:31;22.63;;;13.50;;
26484;SDS011;18083;50.560;7.262;2024-03-22T06:47:58;25.10;;;15.03;;
26484;SDS011;18083;50.560;7.262;2024-03-22T06:50:26;23.67;;;13.55;;
26484;SDS011;18083;50.560;7.262;2024-03-22T06:52:53;24.90;;;14.30;;
26484;SDS011;18083;50.560;7.262;2024-03-22T06:55:21;21.90;;;13.13;;
26484;SDS011;18083;50.560;7.262;2024-03-22T06:57:49;23.20;;;13.57;;
26484;SDS011;18083;50.560;7.262;2024-03-22T07:00:16;23.03;;;12.50;;
26484;SDS011;18083;50.560;7.262;2024-03-22T07:02:44;23.87;;;13.70;;
26484;SDS011;18083;50.560;7.262;2024-03-22T07:05:11;19.73;;;13.72;;
26484;SDS011;18083;50.560;7.262;2024-03-22T07:07:39;24.75;;;12.55;;
26484;SDS011;18083;50.560;7.262;2024-03-22T07:10:06;25.37;;;12.95;;
26484;SDS011;18083;50.560;7.262;2024-03-22T07:12:33;25.33;;;13.07;;
26484;SDS011;18083;50.560;7.262;2024-03-22T07:15:01;24.40;;;13.20;;
26484;SDS011;18083;50.560;7.262;2024-03-22T07:17:28;23.23;;;11.93;;
26484;SDS011;18083;50.560;7.262;2024-03-22T07:19:56;21.17;;;11.97;;
26484;SDS011;18083;50.560;7.262;2024-03-22T07:22:23;18.50;;;13.05;;
26484;SDS011;18083;50.560;7.262;2024-03-22T07:24:51;18.00;;;11.37;;
26484;SDS011;18083;50.560;7.262;2024-03-22T07:27:18;23.60;;;11.90;;
26484;SDS011;18083;50.560;7.262;2024-03-22T07:29:45;17.30;;;10.45;;
26484;SDS011;18083;50.560;7.262;2024-03-22T07:32:13;23.12;;;13.90;;
26484;SDS011;18083;50.560;7.262;2024-03-22T07:34:40;21.97;;;11.45;;
26484;SDS011;18083;50.560;7.262;2024-03-22T07:37:08;15.95;;;11.00;;
26484;SDS011;18083;50.560;7.262;2024-03-22T07:39:35;16.12;;;11.33;;
26484;SDS011;18083;50.560;7.262;2024-03-22T07:42:02;21.00;;;10.83;;
26484;SDS011;18083;50.560;7.262;2024-03-22T07:44:30;20.75;;;10.38;;
26484;SDS011;18083;50.560;7.262;2024-03-22T07:46:57;22.60;;;11.05;;
26484;SDS011;18083;50.560;7.262;2024-03-22T07:49:24;18.02;;;10.98;;
26484;SDS011;18083;50.560;7.262;2024-03-22T07:51:52;16.30;;;10.48;;
26484;SDS011;18083;50.560;7.262;2024-03-22T07:54:19;18.82;;;10.70;;
26484;SDS011;18083;50.560;7.262;2024-03-22T07:56:47;16.93;;;10.93;;
26484;SDS011;18083;50.560;7.262;2024-03-22T07:59:14;15.30;;;10.65;;
26484;SDS011;18083;50.560;7.262;2024-03-22T08:01:41;14.15;;;9.83;;
26484;SDS011;18083;50.560;7.262;2024-03-22T08:04:09;19.92;;;11.70;;
26484;SDS011;18083;50.560;7.262;2024-03-22T08:06:36;23.98;;;11.10;;
26484;SDS011;18083;50.560;7.262;2024-03-22T08:09:03;19.95;;;10.05;;
26484;SDS011;18083;50.560;7.262;2024-03-22T08:11:31;15.83;;;11.08;;
26484;SDS011;18083;50.560;7.262;2024-03-22T08:13:58;16.67;;;10.23;;
26484;SDS011;18083;50.560;7.262;2024-03-22T08:16:29;19.10;;;9.98;;
26484;SDS011;18083;50.560;7.262;2024-03-22T08:18:57;16.90;;;9.85;;
26484;SDS011;18083;50.560;7.262;2024-03-22T08:21:24;16.52;;;9.03;;
26484;SDS011;18083;50.560;7.262;2024-03-22T08:23:51;15.13;;;8.68;;
26484;SDS011;18083;50.560;7.262;2024-03-22T08:26:19;15.18;;;8.68;;
26484;SDS011;18083;50.560;7.262;2024-03-22T08:28:46;16.55;;;8.70;;
26484;SDS011;18083;50.560;7.262;2024-03-22T08:31:14;14.90;;;8.93;;
26484;SDS011;18083;50.560;7.262;2024-03-22T08:33:43;15.58;;;9.23;;
26484;SDS011;18083;50.560;7.262;2024-03-22T08:36:10;17.65;;;9.48;;
26484;SDS011;18083;50.560;7.262;2024-03-22T08:38:37;15.68;;;9.23;;
26484;SDS011;18083;50.560;7.262;2024-03-22T08:41:05;17.55;;;8.55;;
26484;SDS011;18083;50.560;7.262;2024-03-22T08:43:32;13.43;;;8.63;;
26484;SDS011;18083;50.560;7.262;2024-03-22T08:45:59;11.25;;;9.13;;
26484;SDS011;18083;50.560;7.262;2024-03-22T08:48:27;15.03;;;9.25;;
26484;SDS011;18083;50.560;7.262;2024-03-22T08:50:54;13.28;;;8.33;;
26484;SDS011;18083;50.560;7.262;2024-03-22T08:53:21;15.35;;;8.63;;
26484;SDS011;18083;50.560;7.262;2024-03-22T08:55:49;11.00;;;8.40;;
26484;SDS011;18083;50.560;7.262;2024-03-22T08:58:16;17.73;;;9.75;;
26484;SDS011;18083;50.560;7.262;2024-03-22T09:00:44;13.15;;;8.33;;
26484;SDS011;18083;50.560;7.262;2024-03-22T09:03:11;10.98;;;7.75;;
26484;SDS011;18083;50.560;7.262;2024-03-22T09:05:40;15.30;;;9.05;;
26484;SDS011;18083;50.560;7.262;2024-03-22T09:08:07;13.72;;;9.48;;
26484;SDS011;18083;50.560;7.262;2024-03-22T09:10:35;13.90;;;7.85;;
26484;SDS011;18083;50.560;7.262;2024-03-22T09:13:02;13.28;;;8.58;;
26484;SDS011;18083;50.560;7.262;2024-03-22T09:15:30;15.28;;;8.25;;
26484;SDS011;18083;50.560;7.262;2024-03-22T09:17:57;12.58;;;8.13;;
26484;SDS011;18083;50.560;7.262;2024-03-22T09:20:24;17.48;;;8.63;;
26484;SDS011;18083;50.560;7.262;2024-03-22T09:22:52;14.03;;;9.28;;
26484;SDS011;18083;50.560;7.262;2024-03-22T09:25:19;14.07;;;8.40;;
26484;SDS011;18083;50.560;7.262;2024-03-22T09:27:47;13.28;;;9.08;;
26484;SDS011;18083;50.560;7.262;2024-03-22T09:30:14;22.80;;;8.43;;
26484;SDS011;18083;50.560;7.262;2024-03-22T09:32:42;15.38;;;8.73;;
26484;SDS011;18083;50.560;7.262;2024-03-22T09:35:09;13.10;;;9.03;;
26484;SDS011;18083;50.560;7.262;2024-03-22T09:37:38;11.08;;;7.78;;
26484;SDS011;18083;50.560;7.262;2024-03-22T09:40:06;14.98;;;9.18;;
26484;SDS011;18083;50.560;7.262;2024-03-22T09:42:34;17.07;;;9.13;;
26484;SDS011;18083;50.560;7.262;2024-03-22T09:45:03;17.62;;;9.43;;
26484;SDS011;18083;50.560;7.262;2024-03-22T09:47:30;10.72;;;7.90;;
26484;SDS011;18083;50.560;7.262;2024-03-22T09:49:58;12.37;;;9.43;;
26484;SDS011;18083;50.560;7.262;2024-03-22T09:52:26;11.70;;;7.72;;
26484;SDS011;18083;50.560;7.262;2024-03-22T09:54:53;19.50;;;11.55;;
26484;SDS011;18083;50.560;7.262;2024-03-22T09:57:21;13.20;;;8.53;;
26484;SDS011;18083;50.560;7.262;2024-03-22T09:59:50;13.65;;;9.58;;
26484;SDS011;18083;50.560;7.262;2024-03-22T10:02:18;14.58;;;8.35;;
26484;SDS011;18083;50.560;7.262;2024-03-22T10:04:45;18.30;;;10.03;;
26484;SDS011;18083;50.560;7.262;2024-03-22T10:07:13;12.60;;;8.85;;
26484;SDS011;18083;50.560;7.262;2024-03-22T10:09:40;16.40;;;9.40;;
26484;SDS011;18083;50.560;7.262;2024-03-22T10:12:08;15.72;;;9.30;;
26484;SDS011;18083;50.560;7.262;2024-03-22T10:14:36;20.90;;;9.80;;
26484;SDS011;18083;50.560;7.262;2024-03-22T10:17:03;15.08;;;8.50;;
26484;SDS011;18083;50.560;7.262;2024-03-22T10:19:31;11.88;;;9.60;;
26484;SDS011;18083;50.560;7.262;2024-03-22T10:22:04;15.78;;;10.95;;
26484;SDS011;18083;50.560;7.262;2024-03-22T10:24:34;17.62;;;10.28;;
26484;SDS011;18083;50.560;7.262;2024-03-22T10:27:02;15.75;;;10.20;;
26484;SDS011;18083;50.560;7.262;2024-03-22T10:29:29;16.77;;;9.93;;
26484;SDS011;18083;50.560;7.262;2024-03-22T10:31:57;16.17;;;10.00;;
26484;SDS011;18083;50.560;7.262;2024-03-22T10:34:24;15.78;;;9.88;;
26484;SDS011;18083;50.560;7.262;2024-03-22T10:36:52;18.75;;;9.28;;
26484;SDS011;18083;50.560;7.262;2024-03-22T10:39:19;16.73;;;9.48;;
26484;SDS011;18083;50.560;7.262;2024-03-22T10:41:46;13.28;;;9.08;;
26484;SDS011;18083;50.560;7.262;2024-03-22T10:44:17;19.35;;;9.93;;
26484;SDS011;18083;50.560;7.262;2024-03-22T10:46:45;19.55;;;11.12;;
26484;SDS011;18083;50.560;7.262;2024-03-22T10:49:16;19.30;;;9.45;;
26484;SDS011;18083;50.560;7.262;2024-03-22T10:51:41;26.25;;;10.45;;
26484;SDS011;18083;50.560;7.262;2024-03-22T10:54:10;19.27;;;10.00;;
26484;SDS011;18083;50.560;7.262;2024-03-22T10:56:39;19.85;;;12.03;;
26484;SDS011;18083;50.560;7.262;2024-03-22T10:59:06;14.90;;;10.35;;
26484;SDS011;18083;50.560;7.262;2024-03-22T11:01:34;22.52;;;10.60;;
26484;SDS011;18083;50.560;7.262;2024-03-22T11:04:03;20.97;;;10.00;;
26484;SDS011;18083;50.560;7.262;2024-03-22T11:06:32;19.48;;;10.95;;
26484;SDS011;18083;50.560;7.262;2024-03-22T11:09:00;13.18;;;7.97;;
26484;SDS011;18083;50.560;7.262;2024-03-22T11:11:35;9.68;;;8.10;;
26484;SDS011;18083;50.560;7.262;2024-03-22T11:14:05;14.68;;;9.88;;
26484;SDS011;18083;50.560;7.262;2024-03-22T11:16:32;14.33;;;9.90;;
26484;SDS011;18083;50.560;7.262;2024-03-22T11:18:59;18.02;;;9.63;;
26484;SDS011;18083;50.560;7.262;2024-03-22T11:21:27;19.52;;;9.60;;
26484;SDS011;18083;50.560;7.262;2024-03-22T11:23:56;13.05;;;9.40;;
26484;SDS011;18083;50.560;7.262;2024-03-22T11:26:24;16.15;;;9.58;;
26484;SDS011;18083;50.560;7.262;2024-03-22T11:28:51;11.60;;;7.70;;
26484;SDS011;18083;50.560;7.262;2024-03-22T11:31:18;10.70;;;8.00;;
26484;SDS011;18083;50.560;7.262;2024-03-22T11:33:48;11.73;;;7.65;;
26484;SDS011;18083;50.560;7.262;2024-03-22T11:36:16;11.12;;;7.83;;
26484;SDS011;18083;50.560;7.262;2024-03-22T11:38:43;10.25;;;7.42;;
26484;SDS011;18083;50.560;7.262;2024-03-22T11:41:10;13.38;;;7.08;;
26484;SDS011;18083;50.560;7.262;2024-03-22T11:43:39;14.00;;;7.72;;
26484;SDS011;18083;50.560;7.262;2024-03-22T11:46:06;10.05;;;7.37;;
26484;SDS011;18083;50.560;7.262;2024-03-22T11:48:33;9.90;;;6.62;;
26484;SDS011;18083;50.560;7.262;2024-03-22T11:51:02;10.15;;;6.03;;
26484;SDS011;18083;50.560;7.262;2024-03-22T11:53:31;9.88;;;6.40;;
26484;SDS011;18083;50.560;7.262;2024-03-22T11:55:58;11.40;;;6.78;;
26484;SDS011;18083;50.560;7.262;2024-03-22T11:58:28;11.25;;;6.00;;
26484;SDS011;18083;50.560;7.262;2024-03-22T12:00:56;8.23;;;6.25;;
26484;SDS011;18083;50.560;7.262;2024-03-22T12:03:24;8.25;;;5.75;;
26484;SDS011;18083;50.560;7.262;2024-03-22T12:05:54;10.58;;;6.00;;
26484;SDS011;18083;50.560;7.262;2024-03-22T12:08:20;10.58;;;6.62;;
26484;SDS011;18083;50.560;7.262;2024-03-22T12:10:51;12.55;;;5.85;;
26484;SDS011;18083;50.560;7.262;2024-03-22T12:13:19;12.05;;;6.00;;
26484;SDS011;18083;50.560;7.262;2024-03-22T12:15:46;9.50;;;6.08;;
26484;SDS011;18083;50.560;7.262;2024-03-22T12:18:14;9.53;;;6.20;;
26484;SDS011;18083;50.560;7.262;2024-03-22T12:20:41;9.18;;;5.70;;
26484;SDS011;18083;50.560;7.262;2024-03-22T12:23:09;8.50;;;5.72;;
26484;SDS011;18083;50.560;7.262;2024-03-22T12:25:36;7.95;;;5.42;;
26484;SDS011;18083;50.560;7.262;2024-03-22T12:28:04;8.13;;;6.17;;
26484;SDS011;18083;50.560;7.262;2024-03-22T12:30:31;13.62;;;5.97;;
26484;SDS011;18083;50.560;7.262;2024-03-22T12:33:00;13.25;;;6.78;;
26484;SDS011;18083;50.560;7.262;2024-03-22T12:35:28;9.78;;;5.95;;
26484;SDS011;18083;50.560;7.262;2024-03-22T12:37:57;9.58;;;6.08;;
26484;SDS011;18083;50.560;7.262;2024-03-22T12:40:24;7.90;;;6.05;;
26484;SDS011;18083;50.560;7.262;2024-03-22T12:42:52;9.70;;;6.45;;
26484;SDS011;18083;50.560;7.262;2024-03-22T12:45:19;9.68;;;6.12;;
26484;SDS011;18083;50.560;7.262;2024-03-22T12:47:46;11.75;;;6.08;;
26484;SDS011;18083;50.560;7.262;2024-03-22T12:50:14;7.67;;;5.47;;
26484;SDS011;18083;50.560;7.262;2024-03-22T12:52:41;12.68;;;6.67;;
26484;SDS011;18083;50.560;7.262;2024-03-22T12:55:10;9.75;;;6.58;;
26484;SDS011;18083;50.560;7.262;2024-03-22T12:57:38;8.03;;;5.70;;
26484;SDS011;18083;50.560;7.262;2024-03-22T13:00:06;9.33;;;5.92;;
26484;SDS011;18083;50.560;7.262;2024-03-22T13:02:35;8.95;;;5.83;;
26484;SDS011;18083;50.560;7.262;2024-03-22T13:05:03;9.15;;;5.42;;
26484;SDS011;18083;50.560;7.262;2024-03-22T13:07:31;10.90;;;5.97;;
26484;SDS011;18083;50.560;7.262;2024-03-22T13:09:58;6.95;;;4.78;;
26484;SDS011;18083;50.560;7.262;2024-03-22T13:12:29;10.35;;;5.58;;
26484;SDS011;18083;50.560;7.262;2024-03-22T13:15:01;13.15;;;6.22;;
26484;SDS011;18083;50.560;7.262;2024-03-22T13:17:28;11.20;;;6.28;;
26484;SDS011;18083;50.560;7.262;2024-03-22T13:19:55;10.03;;;6.97;;
26484;SDS011;18083;50.560;7.262;2024-03-22T13:22:24;7.22;;;4.85;;
26484;SDS011;18083;50.560;7.262;2024-03-22T13:24:52;7.97;;;5.85;;
26484;SDS011;18083;50.560;7.262;2024-03-22T13:27:19;9.95;;;6.92;;
26484;SDS011;18083;50.560;7.262;2024-03-22T13:29:48;7.03;;;4.95;;
26484;SDS011;18083;50.560;7.262;2024-03-22T13:32:16;7.97;;;4.42;;
26484;SDS011;18083;50.560;7.262;2024-03-22T13:34:43;8.98;;;5.30;;
26484;SDS011;18083;50.560;7.262;2024-03-22T13:37:10;9.43;;;4.72;;
26484;SDS011;18083;50.560;7.262;2024-03-22T13:39:38;6.67;;;4.90;;
26484;SDS011;18083;50.560;7.262;2024-03-22T13:42:05;10.93;;;4.20;;
26484;SDS011;18083;50.560;7.262;2024-03-22T13:44:33;5.97;;;3.70;;
26484;SDS011;18083;50.560;7.262;2024-03-22T13:47:00;19.50;;;7.45;;
26484;SDS011;18083;50.560;7.262;2024-03-22T13:49:29;13.20;;;6.87;;
26484;SDS011;18083;50.560;7.262;2024-03-22T13:51:57;13.18;;;6.62;;
26484;SDS011;18083;50.560;7.262;2024-03-22T13:54:26;7.92;;;5.65;;
26484;SDS011;18083;50.560;7.262;2024-03-22T13:56:54;9.50;;;6.08;;
26484;SDS011;18083;50.560;7.262;2024-03-22T13:59:21;14.40;;;5.78;;
26484;SDS011;18083;50.560;7.262;2024-03-22T14:01:49;9.23;;;6.83;;
26484;SDS011;18083;50.560;7.262;2024-03-22T14:04:16;12.23;;;5.50;;
26484;SDS011;18083;50.560;7.262;2024-03-22T14:06:45;8.60;;;5.58;;
26484;SDS011;18083;50.560;7.262;2024-03-22T14:09:13;9.28;;;5.78;;
26484;SDS011;18083;50.560;7.262;2024-03-22T14:11:41;8.63;;;5.08;;
26484;SDS011;18083;50.560;7.262;2024-03-22T14:14:09;9.03;;;5.35;;
26484;SDS011;18083;50.560;7.262;2024-03-22T14:16:40;6.75;;;4.55;;
26484;SDS011;18083;50.560;7.262;2024-03-22T14:19:07;8.25;;;4.87;;
26484;SDS011;18083;50.560;7.262;2024-03-22T14:21:35;10.15;;;5.25;;
26484;SDS011;18083;50.560;7.262;2024-03-22T14:24:02;9.55;;;5.42;;
26484;SDS011;18083;50.560;7.262;2024-03-22T14:26:30;9.63;;;5.62;;
26484;SDS011;18083;50.560;7.262;2024-03-22T14:28:58;8.73;;;4.72;;
26484;SDS011;18083;50.560;7.262;2024-03-22T14:31:28;14.03;;;5.10;;
26484;SDS011;18083;50.560;7.262;2024-03-22T14:33:56;7.67;;;3.87;;
26484;SDS011;18083;50.560;7.262;2024-03-22T14:36:23;8.38;;;4.53;;